Startpagina
METAR-TAF:

METAR-TAF

Vliegvelden :

Grenchen, Zwitserland

breedte: 47-10-53N, lengte: 007-24-59E, hoogte: 430 m

Actueel weer

Dit bericht is 17 minuten geleden gemaakt, om 12:50 UTC
Wind 15 kt uit het oosten
Temperatuur 21°C
Vochtigheid 35%
Druk 1018 hPa
Zicht 10 km of meer
Weinig wolken op 5000 ft

METAR: LSZG 301250Z 09015KT 9999 FEW050 21/05 Q1018 NOSIG

Tijdstip: 15:07 (13:07 UTC)

Verwachting

Dit bericht is 1 uur en het 42 minuten geleden gemaakt, om 11:25 UTC
Verwachting geldig van 30 om 12 UTC tot 30 om 21 UTC
Wind 13 kt uit het oosten
Zicht 10 km of meer
Weinig wolken op 5000 ft
Tijdelijke
van 30 om 12 UTC tot 30 om 18 UTC
Wind 15 kt uit het oostnoordoosten met uitschieters tot 25 kt
Wijzigt naar
van 30 om 15 UTC tot 30 om 18 UTC
Zicht 10 km of meer
geen wolken onder 1500 m en geen cumulonimbus

TAF: LSZG 301125Z 3012/3021 08013KT 9999 FEW050 TEMPO 3012/3018 07015G25KT BECMG 3015/3018 CAVOK

Waarnemingen en weersverwachtingen van meer dan 4000 vliegvelden (METAR en TAF).

De beschikbare stations zijn de gele en rode punten op de kaart.

Ga met uw muis naar het station om de naam te zien.

Klik dan om waarnemingen en weersverwachtingen te zien.

kaart wijzigen: klik op de groene knoppen met een zwart kruis om in te zoomen, op de groene knop met een streepje om uit te zoomen of op de groene pijlen voor aangrenzende kaarten.


METAR-TAF: